Aérodrome :
LOGIN :

S'inscrire | Disclaimer

   EN    FR    IT 

 










Légende :    VFR   VFR Marginal   IFR   IFR Intensif   IFR Très Intensif
Visi : 
Plafond : 
>= 8 km
>= 3000ft
5 à 8 km
1000 à 3000 ft
1500m à 5 km
500 à 1000 ft
800 à 1500m
200 à 500 ft
< 800m
< 200 ft
Symboles :   Orages  Brouillard  Fortes neiges  Fortes précipitations  Vent > 20 kt
SIGMETs :   Divers  Orages  Givrage  Turbulence  Onde Orograph.  Cendres Volcan.






- Altitude de l'aérodrome : 1649 ft
- Code IATA : HHN


EDFH - Frankfurt-Hahn Rhineland-Palatinate

DERNIER METAR :
  • 290320Z 35010KT 310V010 9999 SCT020 01/M03 Q1021

METARs EXPIRÉS :
  • 290250Z 35012KT 320V020 9999 SCT020 01/M03 Q1021
  • 290220Z 35013KT 320V020 9999 BKN020 02/M02 Q1021
  • 290150Z 36013KT 9999 BKN018 02/M02 Q1021
  • 290120Z 36013KT 9999 BKN017 03/M01 Q1021

TAF TAF EDFH
Valide du 29 à 00h jusqu'au 30 à 00h UTC


282300Z 2900/2924 01010KT 9999 SCT025
TEMPO 2901/2911 BKN012
PROB30
TEMPO 2902/2908 4000 -SG BKN008
BECMG 2910/2912 01015G25KT
BECMG 2913/2915 BKN012
TEMPO 2915/2921 3000 -SN BKN008



MET'MAP, la Météo Aéronautique d'un coup d'oeil ! - Copyright ORBIFLY Décembre 2007 - Disclaimer

ORBIFLY MET'MAP TEAM :

Programmation & Développement : Alexandra Zaïnal
Sur une idée originale de : Baudouin d'Aumeries
Assistance à la programmation : Marc-Olivier Méhu
Soutien technique & logistique : Manuel Goepfert

Contact : metmap@orbifly.com




SOURCES & CREDITS :

   NOAA